createdAt,value
2023-03-11T00:00:43.708Z,3.85
2023-03-11T00:03:15.652Z,3.42
2023-03-11T00:05:46.398Z,3.97
2023-03-11T00:08:18.177Z,3.78
2023-03-11T00:10:48.774Z,3.42
2023-03-11T00:13:17.752Z,3.60
2023-03-11T00:15:51.101Z,3.90
2023-03-11T00:18:19.833Z,3.50
2023-03-11T00:20:48.325Z,3.30
2023-03-11T00:23:17.622Z,3.30
2023-03-11T00:25:47.543Z,3.65
2023-03-11T00:28:17.432Z,3.42
2023-03-11T00:30:47.456Z,3.33
2023-03-11T00:33:16.957Z,3.50
2023-03-11T00:35:46.058Z,3.33
2023-03-11T00:38:17.011Z,3.20
2023-03-11T00:40:47.786Z,3.15
2023-03-11T00:43:17.524Z,3.58
2023-03-11T00:45:45.949Z,3.40
2023-03-11T00:48:15.829Z,3.47
2023-03-11T00:50:44.301Z,3.92
2023-03-11T00:53:13.089Z,3.90
2023-03-11T00:55:41.417Z,3.78
2023-03-11T00:58:10.061Z,4.00
2023-03-11T01:00:38.383Z,4.25
2023-03-11T01:03:07.320Z,4.05
2023-03-11T01:05:36.789Z,4.10
2023-03-11T01:08:06.024Z,4.40
2023-03-11T01:10:35.960Z,3.92
2023-03-11T01:13:05.053Z,4.10
2023-03-11T01:15:36.379Z,4.30
2023-03-11T01:18:06.014Z,4.32
2023-03-11T01:20:34.604Z,4.18
2023-03-11T01:23:02.956Z,4.40
2023-03-11T01:25:31.293Z,4.13
2023-03-11T01:28:00.575Z,3.80
2023-03-11T01:30:30.008Z,3.88
2023-03-11T01:32:59.350Z,3.35
2023-03-11T01:35:29.316Z,3.63
2023-03-11T01:37:58.355Z,4.00
2023-03-11T01:40:26.731Z,3.47
2023-03-11T01:42:55.075Z,3.65
2023-03-11T01:45:42.909Z,3.28
2023-03-11T01:48:12.347Z,3.63
2023-03-11T01:50:44.820Z,3.92
2023-03-11T01:53:16.641Z,4.13
2023-03-11T01:55:46.388Z,3.95
2023-03-11T01:58:19.744Z,3.63
2023-03-11T02:00:48.755Z,4.25
2023-03-11T02:03:38.858Z,3.97
2023-03-11T02:06:23.448Z,4.13
2023-03-11T02:08:52.070Z,4.28
2023-03-11T02:11:28.105Z,3.85
2023-03-11T02:14:00.095Z,4.43
2023-03-11T02:16:28.721Z,4.40
2023-03-11T02:19:01.730Z,4.10
2023-03-11T02:21:33.049Z,4.03
2023-03-11T02:24:14.469Z,4.32
2023-03-11T02:27:02.420Z,5.10
2023-03-11T02:29:31.472Z,5.32
2023-03-11T02:32:00.796Z,5.65
2023-03-11T02:34:31.900Z,6.07
2023-03-11T02:37:00.477Z,5.90
2023-03-11T02:39:35.556Z,5.22
2023-03-11T02:42:17.055Z,5.35
2023-03-11T02:44:50.009Z,6.43
2023-03-11T02:47:18.563Z,6.97
2023-03-11T02:49:46.999Z,7.43
2023-03-11T02:52:15.215Z,7.90
2023-03-11T02:54:43.434Z,7.28
2023-03-11T02:57:11.661Z,7.30
2023-03-11T02:59:39.957Z,7.40
2023-03-11T03:02:08.227Z,7.32
2023-03-11T03:04:36.637Z,7.72
2023-03-11T03:07:04.964Z,7.25
2023-03-11T03:09:34.343Z,7.85
2023-03-11T03:12:02.781Z,7.93
2023-03-11T03:14:32.483Z,8.57
2023-03-11T03:17:00.892Z,8.07
2023-03-11T03:19:29.243Z,7.85
2023-03-11T03:21:57.505Z,7.68
2023-03-11T03:24:25.769Z,7.70
2023-03-11T03:26:53.999Z,6.63
2023-03-11T03:29:22.337Z,7.40
2023-03-11T03:31:50.879Z,7.63
2023-03-11T03:34:19.182Z,9.20
2023-03-11T03:36:47.471Z,10.07
2023-03-11T03:39:15.877Z,9.85
2023-03-11T03:41:44.140Z,10.45
2023-03-11T03:44:12.787Z,10.43
2023-03-11T03:46:41.012Z,10.68
2023-03-11T03:49:09.346Z,10.93
2023-03-11T03:51:37.783Z,12.10
2023-03-11T03:54:06.133Z,13.15
2023-03-11T03:56:34.419Z,11.48
2023-03-11T03:59:02.628Z,12.18
2023-03-11T04:01:30.917Z,12.65
2023-03-11T04:03:59.215Z,12.63
2023-03-11T04:06:28.867Z,13.00
2023-03-11T04:08:57.472Z,12.95
2023-03-11T04:11:25.651Z,13.13
2023-03-11T04:13:53.897Z,14.10
2023-03-11T04:16:24.773Z,13.05
2023-03-11T04:18:53.067Z,14.27
2023-03-11T04:21:21.752Z,14.60
2023-03-11T04:23:50.344Z,15.50
2023-03-11T04:26:18.669Z,15.35
2023-03-11T04:28:46.878Z,15.90
2023-03-11T04:31:15.210Z,15.85
2023-03-11T04:33:43.550Z,14.90
2023-03-11T04:36:12.782Z,13.93
2023-03-11T04:38:41.062Z,14.55
2023-03-11T04:41:09.461Z,14.10
2023-03-11T04:43:37.720Z,14.60
2023-03-11T04:46:06.108Z,15.75
2023-03-11T04:48:34.338Z,16.33
2023-03-11T04:51:02.625Z,17.10
2023-03-11T04:53:31.069Z,16.27
2023-03-11T04:55:59.432Z,17.13
2023-03-11T04:58:27.646Z,15.45
2023-03-11T05:00:57.117Z,15.30
2023-03-11T05:03:25.553Z,16.70
2023-03-11T05:05:57.460Z,17.25
2023-03-11T05:08:25.889Z,16.27
2023-03-11T05:10:54.755Z,15.98
2023-03-11T05:13:23.515Z,15.63
2023-03-11T05:15:52.103Z,15.65
2023-03-11T05:18:20.347Z,14.85
2023-03-11T05:20:48.896Z,15.02
2023-03-11T05:23:17.234Z,14.00
2023-03-11T05:25:45.594Z,14.60
2023-03-11T05:28:13.901Z,14.48
2023-03-11T05:30:42.173Z,12.57
2023-03-11T05:33:10.402Z,11.82
2023-03-11T05:35:38.739Z,6.55
2023-03-11T05:38:06.986Z,6.28
2023-03-11T05:40:35.316Z,5.57
2023-03-11T05:43:03.533Z,3.45
2023-03-11T05:45:31.789Z,2.78
2023-03-11T05:48:00.088Z,3.30
2023-03-11T05:50:28.407Z,2.60
2023-03-11T05:52:56.625Z,2.60
2023-03-11T05:55:24.892Z,2.60
2023-03-11T05:57:53.864Z,2.08
2023-03-11T06:00:22.614Z,1.80
2023-03-11T06:02:51.188Z,2.45
2023-03-11T06:05:19.534Z,2.30
2023-03-11T06:07:47.838Z,2.13
2023-03-11T06:10:16.089Z,2.25
2023-03-11T06:12:44.372Z,1.70
2023-03-11T06:15:12.735Z,1.92
2023-03-11T06:17:40.961Z,1.95
2023-03-11T06:20:10.654Z,2.17
2023-03-11T06:22:40.264Z,1.85
2023-03-11T06:25:09.104Z,2.10
2023-03-11T06:27:37.410Z,2.78
2023-03-11T06:30:06.319Z,2.15
2023-03-11T06:32:36.220Z,2.38
2023-03-11T06:35:05.717Z,1.73
2023-03-11T06:37:38.071Z,2.00
2023-03-11T06:40:08.812Z,2.30
2023-03-11T06:42:37.906Z,2.00
2023-03-11T06:45:06.780Z,2.33
2023-03-11T06:47:35.079Z,2.00
2023-03-11T06:50:07.451Z,2.60
2023-03-11T06:52:35.857Z,1.85
2023-03-11T06:55:04.920Z,2.15
2023-03-11T06:57:34.579Z,2.03
2023-03-11T07:00:02.971Z,1.65
2023-03-11T07:02:31.230Z,2.00
2023-03-11T07:04:59.506Z,2.40
2023-03-11T07:07:27.761Z,1.92
2023-03-11T07:09:59.245Z,2.22
2023-03-11T07:12:27.581Z,2.08
2023-03-11T07:14:57.361Z,2.10
2023-03-11T07:17:26.176Z,1.60
2023-03-11T07:19:54.926Z,1.50
2023-03-11T07:22:23.075Z,1.70
2023-03-11T07:24:51.835Z,1.80
2023-03-11T07:27:20.076Z,1.88
2023-03-11T07:29:48.418Z,1.65
2023-03-11T07:32:16.721Z,2.33
2023-03-11T07:34:44.992Z,2.10
2023-03-11T07:37:13.252Z,2.25
2023-03-11T07:39:41.466Z,1.70
2023-03-11T07:42:09.781Z,2.10
2023-03-11T07:44:38.006Z,1.90
2023-03-11T07:47:07.237Z,2.05
2023-03-11T07:49:35.443Z,2.03
2023-03-11T07:52:03.676Z,1.85
2023-03-11T07:54:31.854Z,1.65
2023-03-11T07:57:00.120Z,1.70
2023-03-11T07:59:28.462Z,1.90
2023-03-11T08:01:57.872Z,1.90
2023-03-11T08:04:26.070Z,1.98
2023-03-11T08:06:54.441Z,1.88
2023-03-11T08:09:22.602Z,2.30
2023-03-11T08:11:50.853Z,2.03
2023-03-11T08:14:19.087Z,2.20
2023-03-11T08:16:47.316Z,2.03
2023-03-11T08:19:15.705Z,2.20
2023-03-11T08:21:43.897Z,2.17
2023-03-11T08:24:14.284Z,2.05
2023-03-11T08:26:43.127Z,1.70
2023-03-11T08:29:11.470Z,2.17
2023-03-11T08:31:39.690Z,2.03
2023-03-11T08:34:10.643Z,1.80
2023-03-11T08:36:38.908Z,1.90
2023-03-11T08:39:07.183Z,1.60
2023-03-11T08:41:35.637Z,2.08
2023-03-11T08:44:03.941Z,2.17
2023-03-11T08:46:36.812Z,1.88
2023-03-11T08:49:05.769Z,1.80
2023-03-11T08:51:35.604Z,1.70
2023-03-11T08:54:04.657Z,1.80
2023-03-11T08:56:33.179Z,1.75
2023-03-11T08:59:01.502Z,1.58
2023-03-11T09:01:30.984Z,2.33
2023-03-11T09:03:59.451Z,1.52
2023-03-11T09:06:27.724Z,2.10
2023-03-11T09:08:55.937Z,1.55
2023-03-11T09:11:24.804Z,1.88
2023-03-11T09:13:53.509Z,1.70
2023-03-11T09:16:24.059Z,1.52
2023-03-11T09:18:52.702Z,1.50
2023-03-11T09:21:21.564Z,1.80
2023-03-11T09:23:49.885Z,1.88
2023-03-11T09:26:18.200Z,1.90
2023-03-11T09:28:49.768Z,1.48
2023-03-11T09:31:19.045Z,1.90
2023-03-11T09:33:48.180Z,1.73
2023-03-11T09:36:22.482Z,1.70
2023-03-11T09:38:51.180Z,1.60
2023-03-11T09:41:19.375Z,2.08
2023-03-11T09:44:18.073Z,1.90
2023-03-11T09:47:11.269Z,2.13
2023-03-11T09:49:56.290Z,2.25
2023-03-11T09:55:26.176Z,2.28
2023-03-11T09:57:57.036Z,1.95
2023-03-11T10:00:25.995Z,2.15
2023-03-11T10:02:54.742Z,1.83
2023-03-11T10:05:31.424Z,1.73
2023-03-11T10:08:17.318Z,2.25
2023-03-11T10:10:54.351Z,1.70
2023-03-11T10:13:33.365Z,2.20
2023-03-11T10:16:21.640Z,1.73
2023-03-11T10:19:11.292Z,1.42
2023-03-11T10:21:53.978Z,2.40
2023-03-11T10:24:54.600Z,2.13
2023-03-11T10:27:40.406Z,1.77
2023-03-11T10:30:18.706Z,1.90
2023-03-11T10:33:00.322Z,1.67
2023-03-11T10:35:46.944Z,2.22
2023-03-11T10:38:23.994Z,1.67
2023-03-11T10:41:21.041Z,1.67
2023-03-11T10:44:03.763Z,1.80
2023-03-11T10:46:32.010Z,1.98
2023-03-11T10:49:00.186Z,2.05
2023-03-11T10:51:35.223Z,2.53
2023-03-11T10:54:05.053Z,1.73
2023-03-11T10:56:39.846Z,1.45
2023-03-11T10:59:28.419Z,2.10
2023-03-11T11:02:24.440Z,1.65
2023-03-11T11:05:09.577Z,2.08
2023-03-11T11:07:42.635Z,1.80
2023-03-11T11:10:16.211Z,1.65
2023-03-11T11:12:59.887Z,1.77
2023-03-11T11:15:32.392Z,2.00
2023-03-11T11:18:20.669Z,2.00
2023-03-11T11:21:07.778Z,1.92
2023-03-11T11:23:38.685Z,2.08
2023-03-11T11:26:17.109Z,2.05
2023-03-11T11:28:45.361Z,1.88
2023-03-11T11:31:27.461Z,1.73
2023-03-11T11:33:57.442Z,1.88
2023-03-11T11:36:35.455Z,2.50
2023-03-11T11:39:13.328Z,2.10
2023-03-11T11:41:41.568Z,1.90
2023-03-11T11:44:16.733Z,2.10
2023-03-11T11:46:53.996Z,2.30
2023-03-11T11:49:22.151Z,2.30
2023-03-11T11:52:26.000Z,2.20
2023-03-11T11:55:02.902Z,2.13
2023-03-11T11:57:31.240Z,2.85
2023-03-11T11:59:59.620Z,2.30
2023-03-11T12:03:05.986Z,2.75
2023-03-11T12:05:44.864Z,2.20
2023-03-11T12:08:35.308Z,2.80
2023-03-11T12:11:12.534Z,2.55
2023-03-11T12:14:04.141Z,2.35
2023-03-11T12:16:38.113Z,2.50
2023-03-11T12:19:12.449Z,2.80
2023-03-11T12:22:01.474Z,2.92
2023-03-11T12:24:52.321Z,2.90
2023-03-11T12:27:29.732Z,2.60
2023-03-11T12:30:04.131Z,2.65
2023-03-11T12:32:45.276Z,3.17
2023-03-11T12:35:22.805Z,3.20
2023-03-11T12:38:02.821Z,2.92
2023-03-11T12:40:43.676Z,2.72
2023-03-11T12:43:44.159Z,2.97
2023-03-11T12:46:15.100Z,3.30
2023-03-11T12:48:43.273Z,3.28
2023-03-11T12:51:38.237Z,2.60
2023-03-11T12:54:31.596Z,3.60
2023-03-11T12:57:03.050Z,3.05
2023-03-11T13:00:10.483Z,3.00
2023-03-11T13:03:02.783Z,3.80
2023-03-11T13:06:09.629Z,3.15
2023-03-11T13:08:49.540Z,2.83
2023-03-11T13:11:32.664Z,2.83
2023-03-11T13:14:26.737Z,3.40
2023-03-11T13:16:55.426Z,3.47
2023-03-11T13:19:36.722Z,3.05
2023-03-11T13:22:07.241Z,3.53
2023-03-11T13:24:35.371Z,3.40
2023-03-11T13:27:20.532Z,3.30
2023-03-11T13:30:22.112Z,4.07
2023-03-11T13:33:21.757Z,4.32
2023-03-11T13:36:27.074Z,4.10
2023-03-11T13:39:16.132Z,4.05
2023-03-11T13:41:46.002Z,4.07
2023-03-11T13:44:28.961Z,4.50
2023-03-11T13:47:06.759Z,4.63
2023-03-11T13:49:50.905Z,3.70
2023-03-11T13:52:28.213Z,5.25
2023-03-11T13:55:21.077Z,4.60
2023-03-11T13:57:57.914Z,4.95
2023-03-11T14:00:29.390Z,4.05
2023-03-11T14:03:12.985Z,4.68
2023-03-11T14:05:47.417Z,5.13
2023-03-11T14:08:24.964Z,5.10
2023-03-11T14:11:00.742Z,4.72
2023-03-11T14:13:31.417Z,5.22
2023-03-11T14:16:02.519Z,5.13
2023-03-11T14:18:36.855Z,5.05
2023-03-11T14:21:08.146Z,5.70
2023-03-11T14:23:41.748Z,5.50
2023-03-11T14:26:23.506Z,5.07
2023-03-11T14:28:55.542Z,5.97
2023-03-11T14:31:32.582Z,6.15
2023-03-11T14:34:13.354Z,5.75
2023-03-11T14:36:43.185Z,5.70
2023-03-11T14:39:33.836Z,4.72
2023-03-11T14:42:14.550Z,5.90
2023-03-11T14:44:44.760Z,5.95
2023-03-11T14:47:18.517Z,6.40
2023-03-11T14:49:48.797Z,7.07
2023-03-11T14:52:38.216Z,6.07
2023-03-11T14:55:17.191Z,5.88
2023-03-11T14:57:58.389Z,6.70
2023-03-11T15:00:54.380Z,5.75
2023-03-11T15:03:34.176Z,6.55
2023-03-11T15:06:10.506Z,5.50
2023-03-11T15:08:46.217Z,5.93
2023-03-11T15:11:14.355Z,5.70
2023-03-11T15:13:45.235Z,5.35
2023-03-11T15:16:45.224Z,4.45
2023-03-11T15:19:35.289Z,4.90
2023-03-11T15:22:41.769Z,4.85
2023-03-11T15:25:20.973Z,4.65
2023-03-11T15:27:49.204Z,4.47
2023-03-11T15:30:23.648Z,4.95
2023-03-11T15:32:53.079Z,4.60
2023-03-11T15:35:26.164Z,4.93
2023-03-11T15:38:32.832Z,4.97
2023-03-11T15:41:03.872Z,4.90
2023-03-11T15:43:48.071Z,5.05
2023-03-11T15:46:16.399Z,4.95
2023-03-11T15:48:44.696Z,5.72
2023-03-11T15:51:21.509Z,5.40
2023-03-11T15:53:50.279Z,5.43
2023-03-11T15:56:25.682Z,6.82
2023-03-11T15:58:53.911Z,6.40
2023-03-11T16:01:25.131Z,6.47
2023-03-11T16:03:53.517Z,6.57
2023-03-11T16:06:23.591Z,6.28
2023-03-11T16:08:52.186Z,6.50
2023-03-11T16:11:20.924Z,6.78
2023-03-11T16:13:49.238Z,6.45
2023-03-11T16:16:18.784Z,6.20
2023-03-11T16:18:47.045Z,6.50
2023-03-11T16:21:22.535Z,6.60
2023-03-11T16:23:52.421Z,6.07
2023-03-11T16:26:22.132Z,6.05
2023-03-11T16:28:50.379Z,6.53
2023-03-11T16:31:19.495Z,6.30
2023-03-11T16:33:47.763Z,5.80
2023-03-11T16:36:16.066Z,5.85
2023-03-11T16:38:47.924Z,5.55
2023-03-11T16:41:17.483Z,5.00
2023-03-11T16:43:46.121Z,5.32
2023-03-11T16:46:14.437Z,4.85
2023-03-11T16:48:42.698Z,4.93
2023-03-11T16:51:11.251Z,4.35
2023-03-11T16:53:39.488Z,4.63
2023-03-11T16:56:08.016Z,4.25
2023-03-11T16:58:36.223Z,4.43
2023-03-11T17:01:04.515Z,4.65
2023-03-11T17:03:42.098Z,5.10
2023-03-11T17:06:10.952Z,5.15
2023-03-11T17:08:39.213Z,4.50
2023-03-11T17:11:14.786Z,4.47
2023-03-11T17:13:43.018Z,4.10
2023-03-11T17:16:11.416Z,4.50
2023-03-11T17:18:39.850Z,1.98
2023-03-11T17:21:13.375Z,1.33
2023-03-11T17:23:42.031Z,1.38
2023-03-11T17:26:16.944Z,0.70
2023-03-11T17:28:45.340Z,0.60
2023-03-11T17:31:18.170Z,0.50
2023-03-11T17:33:47.119Z,0.90
2023-03-11T17:36:18.952Z,0.90
2023-03-11T17:38:48.421Z,0.60
2023-03-11T17:41:18.628Z,0.68
2023-03-11T17:43:49.223Z,0.63
2023-03-11T17:46:21.190Z,0.55
2023-03-11T17:48:51.476Z,0.80
2023-03-11T17:51:22.666Z,0.80
2023-03-11T17:53:51.544Z,0.30
2023-03-11T17:56:21.384Z,0.50
2023-03-11T17:58:51.240Z,0.50
2023-03-11T18:01:24.832Z,0.60
2023-03-11T18:03:53.645Z,0.40
2023-03-11T18:06:23.117Z,0.70
2023-03-11T18:08:52.087Z,0.60
2023-03-11T18:11:23.435Z,0.50
2023-03-11T18:13:52.679Z,0.45
2023-03-11T18:16:26.916Z,0.80
2023-03-11T18:18:56.160Z,0.70
2023-03-11T18:21:26.890Z,0.80
2023-03-11T18:23:59.250Z,0.80
2023-03-11T18:26:29.468Z,0.60
2023-03-11T18:28:59.237Z,0.70
2023-03-11T18:31:29.183Z,0.60
2023-03-11T18:34:01.340Z,0.40
2023-03-11T18:36:31.830Z,0.90
2023-03-11T18:39:01.324Z,0.90
2023-03-11T18:41:33.335Z,0.70
2023-03-11T18:44:02.231Z,0.70
2023-03-11T18:46:34.950Z,2.20
2023-03-11T18:49:04.704Z,0.70
2023-03-11T18:51:33.857Z,0.80
2023-03-11T18:54:02.313Z,0.85
2023-03-11T18:56:33.384Z,1.00
2023-03-11T18:59:01.973Z,0.47
2023-03-11T19:01:30.839Z,0.40
2023-03-11T19:04:01.258Z,0.40
2023-03-11T19:06:30.307Z,0.50
2023-03-11T19:08:58.881Z,0.45
2023-03-11T19:11:27.596Z,0.50
2023-03-11T19:13:56.504Z,0.43
2023-03-11T19:16:27.341Z,0.50
2023-03-11T19:18:56.821Z,0.40
2023-03-11T19:21:26.877Z,0.40
2023-03-11T19:23:57.321Z,0.70
2023-03-11T19:26:41.420Z,0.40
2023-03-11T19:29:11.795Z,0.25
2023-03-11T19:31:40.181Z,0.30
2023-03-11T19:34:08.577Z,0.40
2023-03-11T19:36:36.797Z,0.30
2023-03-11T19:39:05.104Z,0.28
2023-03-11T19:41:33.305Z,0.30
2023-03-11T19:44:01.837Z,0.30
2023-03-11T19:46:30.646Z,0.30
2023-03-11T19:48:59.717Z,0.20
2023-03-11T19:51:32.960Z,0.30
2023-03-11T19:54:07.280Z,0.30
2023-03-11T19:56:35.518Z,0.30
2023-03-11T19:59:03.945Z,0.30
2023-03-11T20:01:32.592Z,0.20
2023-03-11T20:04:00.807Z,0.22
2023-03-11T20:06:29.104Z,0.30
2023-03-11T20:08:57.814Z,0.30
2023-03-11T20:11:26.121Z,0.30
2023-03-11T20:13:54.508Z,0.25
2023-03-11T20:16:23.441Z,0.30
2023-03-11T20:18:52.668Z,0.30
2023-03-11T20:21:21.127Z,0.20
2023-03-11T20:23:49.988Z,0.22
2023-03-11T20:26:20.124Z,0.20
2023-03-11T20:28:48.428Z,0.20
2023-03-11T20:31:20.529Z,0.30
2023-03-11T20:33:50.644Z,0.30
2023-03-11T20:36:22.473Z,0.20
2023-03-11T20:38:52.951Z,0.20
2023-03-11T20:41:24.017Z,0.20
2023-03-11T20:43:57.380Z,0.30
2023-03-11T20:46:26.189Z,0.20
2023-03-11T20:48:54.524Z,0.38
2023-03-11T20:51:25.214Z,0.30
2023-03-11T20:53:54.353Z,0.20
2023-03-11T20:56:25.756Z,0.30
2023-03-11T20:58:56.710Z,0.30
2023-03-11T21:01:29.346Z,0.30
2023-03-11T21:04:00.749Z,0.20
2023-03-11T21:06:41.766Z,0.30
2023-03-11T21:09:17.452Z,0.30
2023-03-11T21:11:46.214Z,0.30
2023-03-11T21:14:19.530Z,0.20
2023-03-11T21:16:47.970Z,0.30
2023-03-11T21:19:16.385Z,0.35
2023-03-11T21:21:44.642Z,0.22
2023-03-11T21:24:13.300Z,0.30
2023-03-11T21:26:41.745Z,0.20
2023-03-11T21:29:10.516Z,0.30
2023-03-11T21:31:38.862Z,0.38
2023-03-11T21:34:07.405Z,0.30
2023-03-11T21:36:35.725Z,0.30
2023-03-11T21:39:04.241Z,0.30
2023-03-11T21:41:32.782Z,0.20
2023-03-11T21:44:01.423Z,0.32
2023-03-11T21:46:32.432Z,0.30
2023-03-11T21:49:01.739Z,0.40
2023-03-11T21:51:31.319Z,0.43
2023-03-11T21:54:00.157Z,0.35
2023-03-11T21:56:29.398Z,0.57
2023-03-11T21:58:57.878Z,0.30
2023-03-11T22:01:26.405Z,0.30
2023-03-11T22:03:54.865Z,0.30
2023-03-11T22:06:23.482Z,0.40
2023-03-11T22:08:52.150Z,0.28
2023-03-11T22:11:21.274Z,0.30
2023-03-11T22:13:52.444Z,0.30
2023-03-11T22:16:22.677Z,0.40
2023-03-11T22:18:52.581Z,0.30
2023-03-11T22:21:21.741Z,0.40
2023-03-11T22:23:50.344Z,0.30
2023-03-11T22:26:18.630Z,0.30
2023-03-11T22:28:46.916Z,0.35
2023-03-11T22:31:16.285Z,0.40
2023-03-11T22:33:44.520Z,0.45
2023-03-11T22:36:12.897Z,0.40
2023-03-11T22:38:42.955Z,0.30
2023-03-11T22:41:11.995Z,0.40
2023-03-11T22:43:40.860Z,0.30
2023-03-11T22:46:09.208Z,0.30
2023-03-11T22:48:37.857Z,0.40
2023-03-11T22:51:07.134Z,0.40
2023-03-11T22:53:35.582Z,0.57
2023-03-11T22:56:09.320Z,0.30
2023-03-11T22:58:37.575Z,0.30
2023-03-11T23:01:06.782Z,0.30
2023-03-11T23:03:36.377Z,0.30
2023-03-11T23:06:08.363Z,0.30
2023-03-11T23:08:37.447Z,0.30
2023-03-11T23:11:09.217Z,0.20
2023-03-11T23:13:37.629Z,0.43
2023-03-11T23:16:15.048Z,0.30
2023-03-11T23:18:46.111Z,0.30
2023-03-11T23:21:21.307Z,0.30
2023-03-11T23:23:50.626Z,0.30
2023-03-11T23:26:20.327Z,0.40
2023-03-11T23:28:51.689Z,0.40
2023-03-11T23:31:21.153Z,0.40
2023-03-11T23:33:50.058Z,0.30
2023-03-11T23:36:21.100Z,0.30
2023-03-11T23:38:51.878Z,0.30
2023-03-11T23:41:24.611Z,0.35
2023-03-11T23:43:53.111Z,0.30
2023-03-11T23:46:21.485Z,0.50
2023-03-11T23:48:49.907Z,0.30
2023-03-11T23:51:18.180Z,0.40
2023-03-11T23:53:46.862Z,0.40
2023-03-11T23:56:18.090Z,0.60
2023-03-11T23:58:47.263Z,0.50
